East Dennis, MA (02641)

7:19 PM EDT on July 29, 2016 (GMT -0400)
golf course | | Change Station

Elev 79 ft 41.73 °N, 70.16 °W | Updated 7 minutes ago

Clear
Clear
76.3 °F
Feels Like 78 °F
N
0.0
Wind Variable Wind from North

Today
High -- | Low -- °F
--% Chance of Precip.
Yesterday
High -- | Low -- °F
Precip. -- in
Pressure 29.85 in
Visibility 10.0 miles
Clouds Clear
Heat Index 78 °F
Dew Point 68 °F
Humidity 76%
Rainfall 0.20 in
Snow Depth Not available.
5:32 AM 8:01 PM
Waning Crescent, 18% visible
METAR KCQX 292252Z AUTO 08004KT 10SM CLR 23/18 A2985 RMK AO2 SLP108 T02280183
Pressure 29.85 in
Visibility 10.0 miles
Clouds Clear
Heat Index 78 °F
Dew Point 68 °F
Humidity 76%
Rainfall 0.20 in
Snow Depth Not available.
5:32 AM 8:01 PM
Waning Crescent, 18% visible
METAR KCQX 292252Z AUTO 08004KT 10SM CLR 23/18 A2985 RMK AO2 SLP108 T02280183

10-Day Weather Forecast

Almanac

Astronomy

Jul. 29, 2016 Rise Set
Actual Time
Civil Twilight
Nautical Twilight
Astronomical Twilight
Moon
Length of Visible Light
Length of Day
Tomorrow will be .
, % of the Moon is Illuminated

Today's Extremes

State Highs State Lows

Community

WunderPhotos

Upload Photos

1,928,441 photos uploaded!

WunderBlog® & News

Nearby

Air Quality

  Air Quality AQ Index Pollutant
Not available.

Snow Depth

Station Depth Elevation

Earthquake Activity

City Distance Mag. Time & Date
Minimum magnitude displayed is 2.5.

Coastal Water Temperatures

Place Temperature

Stations

Nearby Weather Stations

Station Location Temp. Windchill Dew Point Humidity Wind Precip. Elev Updated Type
                   

Watches & Warnings

There are currently no watches in effect.